createdAt,value
2019-05-23T00:01:33.545Z,4.23
2019-05-23T00:04:07.486Z,3.73
2019-05-23T00:06:37.522Z,4.03
2019-05-23T00:09:06.849Z,3.77
2019-05-23T00:11:40.663Z,4.53
2019-05-23T00:14:19.661Z,3.60
2019-05-23T00:16:48.811Z,3.93
2019-05-23T00:19:18.481Z,3.80
2019-05-23T00:21:47.051Z,4.10
2019-05-23T00:24:15.661Z,3.87
2019-05-23T00:26:44.902Z,4.50
2019-05-23T00:29:14.928Z,4.40
2019-05-23T00:31:45.395Z,4.07
2019-05-23T00:34:14.699Z,4.40
2019-05-23T00:36:44.815Z,4.40
2019-05-23T00:39:15.062Z,4.10
2019-05-23T00:41:43.567Z,4.03
2019-05-23T00:44:13.258Z,3.97
2019-05-23T00:46:41.894Z,4.17
2019-05-23T00:49:12.906Z,3.97
2019-05-23T00:51:41.475Z,4.20
2019-05-23T00:54:11.164Z,4.13
2019-05-23T00:56:39.877Z,3.70
2019-05-23T00:59:24.465Z,3.77
2019-05-23T01:01:41.044Z,4.10
2019-05-23T01:04:10.936Z,4.00
2019-05-23T01:06:40.229Z,4.20
2019-05-23T01:09:08.914Z,3.73
2019-05-23T01:11:37.441Z,4.27
2019-05-23T01:14:06.287Z,3.80
2019-05-23T01:16:35.605Z,4.00
2019-05-23T01:19:05.075Z,4.23
2019-05-23T01:21:51.504Z,4.00
2019-05-23T01:24:37.440Z,4.30
2019-05-23T01:27:07.474Z,4.83
2019-05-23T01:29:40.950Z,5.07
2019-05-23T01:32:18.070Z,4.00
2019-05-23T01:34:48.443Z,4.30
2019-05-23T01:37:19.358Z,3.90
2019-05-23T01:39:48.848Z,4.10
2019-05-23T01:42:18.380Z,4.10
2019-05-23T01:44:47.483Z,4.17
2019-05-23T01:47:16.890Z,4.00
2019-05-23T01:49:45.393Z,4.43
2019-05-23T01:52:14.195Z,4.60
2019-05-23T01:54:43.233Z,3.70
2019-05-23T01:57:12.083Z,4.27
2019-05-23T01:59:40.908Z,4.70
2019-05-23T02:02:11.375Z,4.80
2019-05-23T02:04:40.630Z,4.67
2019-05-23T02:07:09.872Z,4.80
2019-05-23T02:09:38.647Z,4.77
2019-05-23T02:12:09.452Z,5.00
2019-05-23T02:14:38.892Z,4.40
2019-05-23T02:17:09.047Z,4.33
2019-05-23T02:19:38.278Z,4.97
2019-05-23T02:22:08.319Z,4.20
2019-05-23T02:24:38.135Z,3.97
2019-05-23T02:27:08.507Z,4.23
2019-05-23T02:29:37.483Z,3.80
2019-05-23T02:32:07.134Z,4.30
2019-05-23T02:34:36.296Z,4.30
2019-05-23T02:37:06.565Z,4.00
2019-05-23T02:39:53.318Z,4.47
2019-05-23T02:42:41.390Z,3.90
2019-05-23T02:45:13.104Z,4.40
2019-05-23T02:47:46.238Z,4.37
2019-05-23T02:50:23.628Z,4.33
2019-05-23T02:52:54.329Z,4.07
2019-05-23T02:55:29.614Z,4.13
2019-05-23T02:58:01.165Z,4.33
2019-05-23T03:00:52.562Z,4.30
2019-05-23T03:03:10.224Z,4.50
2019-05-23T03:05:41.187Z,4.00
2019-05-23T03:08:12.729Z,4.23
2019-05-23T03:10:57.759Z,4.57
2019-05-23T03:13:29.134Z,4.73
2019-05-23T03:15:58.686Z,4.77
2019-05-23T03:18:34.039Z,5.00
2019-05-23T03:21:01.798Z,5.23
2019-05-23T03:23:32.806Z,5.10
2019-05-23T03:26:19.880Z,5.00
2019-05-23T03:28:48.671Z,5.30
2019-05-23T03:31:29.976Z,5.30
2019-05-23T03:33:52.120Z,4.77
2019-05-23T03:36:21.817Z,5.23
2019-05-23T03:38:51.364Z,4.90
2019-05-23T03:41:21.696Z,5.00
2019-05-23T03:43:50.726Z,4.97
2019-05-23T03:46:23.804Z,4.53
2019-05-23T03:48:54.317Z,4.87
2019-05-23T03:51:23.764Z,4.40
2019-05-23T03:53:54.056Z,4.50
2019-05-23T03:56:23.082Z,4.97
2019-05-23T03:58:54.225Z,4.87
2019-05-23T04:01:24.369Z,4.60
2019-05-23T04:03:54.524Z,4.57
2019-05-23T04:06:23.345Z,4.00
2019-05-23T04:08:52.751Z,4.10
2019-05-23T04:11:21.496Z,4.70
2019-05-23T04:13:50.989Z,4.70
2019-05-23T04:16:20.017Z,4.97
2019-05-23T04:18:48.521Z,4.47
2019-05-23T04:21:18.928Z,4.80
2019-05-23T04:23:47.536Z,5.67
2019-05-23T04:26:16.273Z,5.10
2019-05-23T04:31:29.109Z,7.00
2019-05-23T04:33:57.678Z,4.63
2019-05-23T04:36:27.820Z,4.93
2019-05-23T04:38:56.594Z,5.03
2019-05-23T04:41:25.267Z,5.00
2019-05-23T04:43:53.865Z,5.90
2019-05-23T04:46:22.709Z,5.63
2019-05-23T04:48:51.997Z,5.83
2019-05-23T04:51:21.482Z,4.77
2019-05-23T04:53:50.234Z,5.17
2019-05-23T04:56:26.140Z,5.40
2019-05-23T04:58:55.038Z,5.13
2019-05-23T05:01:23.782Z,4.87
2019-05-23T05:03:52.815Z,4.43
2019-05-23T05:06:21.353Z,5.10
2019-05-23T05:08:50.692Z,6.80
2019-05-23T05:11:20.094Z,9.93
2019-05-23T05:13:48.573Z,5.80
2019-05-23T05:16:17.302Z,5.80
2019-05-23T05:18:46.515Z,4.93
2019-05-23T05:21:15.487Z,4.67
2019-05-23T05:23:44.124Z,5.50
2019-05-23T05:26:15.663Z,4.93
2019-05-23T05:28:44.918Z,4.33
2019-05-23T05:31:13.419Z,5.23
2019-05-23T05:33:42.054Z,5.93
2019-05-23T05:36:10.632Z,5.60
2019-05-23T05:38:39.141Z,5.60
2019-05-23T05:41:07.776Z,5.20
2019-05-23T05:43:36.337Z,5.50
2019-05-23T05:46:05.396Z,5.20
2019-05-23T05:48:34.243Z,6.50
2019-05-23T05:51:03.517Z,6.10
2019-05-23T05:53:32.553Z,5.57
2019-05-23T05:56:01.136Z,5.63
2019-05-23T05:58:29.844Z,5.40
2019-05-23T06:01:00.067Z,4.97
2019-05-23T06:03:28.587Z,5.80
2019-05-23T06:05:58.787Z,6.47
2019-05-23T06:08:29.030Z,5.63
2019-05-23T06:10:58.368Z,5.83
2019-05-23T06:13:27.006Z,6.10
2019-05-23T06:15:55.661Z,5.00
2019-05-23T06:18:24.479Z,4.50
2019-05-23T06:20:54.364Z,4.30
2019-05-23T06:23:23.150Z,4.67
2019-05-23T06:25:51.757Z,5.13
2019-05-23T06:28:21.456Z,5.43
2019-05-23T06:30:51.215Z,5.57
2019-05-23T06:33:23.851Z,5.23
2019-05-23T06:35:52.208Z,4.53
2019-05-23T06:38:21.390Z,5.80
2019-05-23T06:40:50.250Z,5.40
2019-05-23T06:43:18.967Z,4.90
2019-05-23T06:45:48.168Z,4.67
2019-05-23T06:48:17.046Z,4.77
2019-05-23T06:50:45.694Z,5.00
2019-05-23T06:53:14.414Z,4.90
2019-05-23T06:55:42.929Z,4.13
2019-05-23T06:58:11.947Z,6.03
2019-05-23T07:00:41.545Z,4.40
2019-05-23T07:03:10.136Z,4.33
2019-05-23T07:05:40.874Z,4.33
2019-05-23T07:08:09.482Z,4.37
2019-05-23T07:10:39.731Z,4.20
2019-05-23T07:13:08.367Z,3.53
2019-05-23T07:15:37.580Z,4.07
2019-05-23T07:18:06.981Z,3.33
2019-05-23T07:20:35.584Z,3.23
2019-05-23T07:23:05.139Z,3.00
2019-05-23T07:25:33.601Z,2.87
2019-05-23T07:28:02.258Z,3.50
2019-05-23T07:30:37.876Z,3.10
2019-05-23T07:33:08.446Z,2.70
2019-05-23T07:35:37.815Z,2.90
2019-05-23T07:38:06.710Z,2.87
2019-05-23T07:40:35.531Z,3.00
2019-05-23T07:43:40.873Z,2.80
2019-05-23T07:46:15.400Z,5.13
2019-05-23T07:48:44.044Z,6.00
2019-05-23T07:51:12.734Z,4.07
2019-05-23T07:53:44.226Z,3.70
2019-05-23T07:56:15.311Z,6.27
2019-05-23T07:58:44.231Z,6.43
2019-05-23T08:01:14.434Z,5.60
2019-05-23T08:03:43.864Z,7.33
2019-05-23T08:06:12.801Z,6.03
2019-05-23T08:08:41.392Z,5.60
2019-05-23T08:11:10.013Z,5.40
2019-05-23T08:13:39.164Z,5.40
2019-05-23T08:16:07.774Z,4.93
2019-05-23T08:18:36.429Z,4.83
2019-05-23T08:21:05.097Z,4.77
2019-05-23T08:23:34.106Z,5.00
2019-05-23T08:26:03.067Z,4.67
2019-05-23T08:28:32.559Z,5.40
2019-05-23T08:31:01.467Z,5.20
2019-05-23T08:33:30.427Z,5.60
2019-05-23T08:35:58.967Z,4.43
2019-05-23T08:38:29.323Z,4.33
2019-05-23T08:40:58.066Z,4.97
2019-05-23T08:43:26.604Z,4.70
2019-05-23T08:45:55.907Z,4.77
2019-05-23T08:48:24.901Z,4.63
2019-05-23T08:50:53.545Z,4.73
2019-05-23T08:53:22.437Z,4.60
2019-05-23T08:55:51.751Z,4.43
2019-05-23T08:58:20.613Z,4.60
2019-05-23T09:00:50.080Z,4.87
2019-05-23T09:03:19.868Z,4.60
2019-05-23T09:05:50.297Z,4.63
2019-05-23T09:08:19.961Z,4.53
2019-05-23T09:10:49.169Z,4.50
2019-05-23T09:13:18.339Z,4.27
2019-05-23T09:15:47.101Z,4.10
2019-05-23T09:18:15.816Z,4.57
2019-05-23T09:20:44.559Z,5.80
2019-05-23T09:23:13.329Z,5.00
2019-05-23T09:25:44.755Z,4.50
2019-05-23T09:31:18.738Z,4.90
2019-05-23T09:33:48.996Z,5.83
2019-05-23T09:36:17.594Z,5.60
2019-05-23T09:38:46.082Z,4.90
2019-05-23T09:41:14.602Z,4.50
2019-05-23T09:43:43.145Z,5.03
2019-05-23T09:49:11.787Z,4.43
2019-05-23T09:51:40.464Z,4.83
2019-05-23T09:57:07.549Z,5.47
2019-05-23T09:59:36.258Z,6.07
2019-05-23T10:02:05.676Z,5.50
2019-05-23T10:04:34.679Z,5.60
2019-05-23T10:07:03.801Z,5.80
2019-05-23T10:09:36.044Z,6.23
2019-05-23T10:12:04.724Z,5.93
2019-05-23T10:14:40.235Z,5.57
2019-05-23T10:17:09.126Z,5.43
2019-05-23T10:19:38.208Z,5.90
2019-05-23T10:22:07.283Z,6.33
2019-05-23T10:24:35.920Z,5.77
2019-05-23T10:27:07.567Z,5.03
2019-05-23T10:29:36.236Z,5.50
2019-05-23T10:32:06.516Z,5.73
2019-05-23T10:34:35.482Z,5.83
2019-05-23T10:37:05.795Z,5.60
2019-05-23T10:39:35.430Z,5.37
2019-05-23T10:42:05.628Z,5.10
2019-05-23T10:44:34.411Z,5.20
2019-05-23T10:47:02.919Z,5.60
2019-05-23T10:49:31.449Z,5.17
2019-05-23T10:52:00.004Z,5.67
2019-05-23T10:54:30.024Z,5.30
2019-05-23T10:56:58.530Z,4.93
2019-05-23T10:59:27.096Z,5.83
2019-05-23T11:01:55.783Z,5.43
2019-05-23T11:04:24.284Z,5.43
2019-05-23T11:06:52.956Z,5.07
2019-05-23T11:09:36.778Z,5.43
2019-05-23T11:11:54.982Z,5.10
2019-05-23T11:14:23.405Z,5.47
2019-05-23T11:16:52.479Z,5.97
2019-05-23T11:19:21.117Z,5.90
2019-05-23T11:21:53.750Z,5.67
2019-05-23T11:24:27.511Z,5.40
2019-05-23T11:26:56.212Z,4.73
2019-05-23T11:29:27.210Z,5.20
2019-05-23T11:31:55.294Z,5.20
2019-05-23T11:34:23.973Z,5.30
2019-05-23T11:36:52.691Z,5.40
2019-05-23T11:39:22.671Z,5.47
2019-05-23T11:41:55.409Z,5.43
2019-05-23T11:44:32.849Z,5.10
2019-05-23T11:47:04.625Z,4.90
2019-05-23T11:49:33.213Z,4.83
2019-05-23T11:52:07.287Z,4.60
2019-05-23T11:54:38.563Z,4.97
2019-05-23T11:57:08.966Z,4.70
2019-05-23T11:59:37.891Z,4.87
2019-05-23T12:02:13.786Z,4.57
2019-05-23T12:04:42.632Z,4.20
2019-05-23T12:07:15.303Z,4.80
2019-05-23T12:09:44.155Z,5.03
2019-05-23T12:12:12.938Z,4.77
2019-05-23T12:14:43.058Z,4.40
2019-05-23T12:17:13.645Z,4.50
2019-05-23T12:19:42.431Z,4.63
2019-05-23T12:22:11.246Z,4.17
2019-05-23T12:24:41.288Z,4.33
2019-05-23T12:27:10.095Z,4.40
2019-05-23T12:29:40.011Z,4.40
2019-05-23T12:32:10.324Z,3.83
2019-05-23T12:34:39.092Z,3.70
2019-05-23T12:37:19.147Z,3.97
2019-05-23T12:39:52.853Z,4.30
2019-05-23T12:42:22.575Z,3.90
2019-05-23T12:45:06.010Z,4.00
2019-05-23T12:47:39.054Z,4.17
2019-05-23T12:53:09.600Z,3.30
2019-05-23T12:55:38.403Z,4.00
2019-05-23T12:58:07.473Z,4.07
2019-05-23T13:00:40.762Z,3.97
2019-05-23T13:03:10.205Z,3.57
2019-05-23T13:05:46.343Z,3.40
2019-05-23T13:08:15.243Z,2.90
2019-05-23T13:10:43.995Z,3.40
2019-05-23T13:13:12.669Z,2.60
2019-05-23T13:15:43.791Z,3.07
2019-05-23T13:18:12.482Z,3.20
2019-05-23T13:20:41.100Z,3.27
2019-05-23T13:23:19.573Z,2.70
2019-05-23T13:25:41.403Z,3.20
2019-05-23T13:28:09.961Z,2.90
2019-05-23T13:30:38.683Z,2.80
2019-05-23T13:33:07.432Z,2.77
2019-05-23T13:35:36.517Z,2.60
2019-05-23T13:38:05.459Z,3.00
2019-05-23T13:40:34.142Z,2.83
2019-05-23T13:43:06.663Z,2.80
2019-05-23T13:45:33.288Z,2.80
2019-05-23T13:48:02.083Z,2.50
2019-05-23T13:50:32.540Z,2.60
2019-05-23T13:53:01.367Z,2.83
2019-05-23T13:55:29.947Z,2.50
2019-05-23T13:57:58.526Z,2.70
2019-05-23T14:00:28.837Z,2.30
2019-05-23T14:02:57.519Z,2.47
2019-05-23T14:05:26.305Z,2.60
2019-05-23T14:08:10.453Z,2.60
2019-05-23T14:10:25.570Z,2.60
2019-05-23T14:12:54.248Z,2.47
2019-05-23T14:15:24.495Z,2.73
2019-05-23T14:17:53.314Z,2.50
2019-05-23T14:20:23.248Z,2.80
2019-05-23T14:22:56.240Z,2.80
2019-05-23T14:25:25.413Z,2.67
2019-05-23T14:28:01.353Z,2.40
2019-05-23T14:30:46.468Z,2.57
2019-05-23T14:33:16.704Z,2.70
2019-05-23T14:35:49.725Z,3.00
2019-05-23T14:38:30.154Z,2.60
2019-05-23T14:40:49.064Z,2.73
2019-05-23T14:43:28.185Z,2.63
2019-05-23T14:46:01.133Z,2.80
2019-05-23T14:48:49.062Z,2.90
2019-05-23T14:51:33.797Z,2.80
2019-05-23T14:54:04.141Z,2.90
2019-05-23T14:56:34.250Z,2.80
2019-05-23T14:59:06.715Z,3.00
2019-05-23T15:01:39.366Z,3.00
2019-05-23T15:04:08.039Z,3.00
2019-05-23T15:06:57.908Z,2.97
2019-05-23T15:09:31.117Z,2.70
2019-05-23T15:11:59.721Z,3.40
2019-05-23T15:14:28.363Z,2.90
2019-05-23T15:16:57.031Z,2.80
2019-05-23T15:19:40.079Z,2.97
2019-05-23T15:21:56.147Z,2.80
2019-05-23T15:24:25.027Z,2.63
2019-05-23T15:26:53.656Z,3.20
2019-05-23T15:29:22.247Z,2.80
2019-05-23T15:32:01.871Z,3.00
2019-05-23T15:34:21.155Z,2.87
2019-05-23T15:36:49.706Z,2.77
2019-05-23T15:39:20.082Z,2.97
2019-05-23T15:41:48.792Z,2.60
2019-05-23T15:44:27.229Z,2.87
2019-05-23T15:46:47.654Z,3.00
2019-05-23T15:49:16.712Z,2.67
2019-05-23T15:51:53.701Z,2.67
2019-05-23T15:54:22.262Z,3.07
2019-05-23T15:56:52.469Z,2.70
2019-05-23T15:59:22.612Z,3.67
2019-05-23T16:02:01.635Z,2.80
2019-05-23T16:04:30.163Z,2.70
2019-05-23T16:06:58.899Z,2.97
2019-05-23T16:09:30.746Z,2.47
2019-05-23T16:11:58.317Z,2.47
2019-05-23T16:14:27.596Z,2.70
2019-05-23T16:16:57.357Z,2.90
2019-05-23T16:19:26.111Z,2.40
2019-05-23T16:21:54.814Z,2.40
2019-05-23T16:24:23.771Z,3.10
2019-05-23T16:26:52.576Z,2.93
2019-05-23T16:29:21.866Z,2.40
2019-05-23T16:31:50.601Z,2.73
2019-05-23T16:34:19.193Z,2.70
2019-05-23T16:36:47.745Z,2.40
2019-05-23T16:39:16.799Z,3.17
2019-05-23T16:41:45.460Z,3.07
2019-05-23T16:44:14.225Z,2.90
2019-05-23T16:46:42.945Z,2.50
2019-05-23T16:49:11.466Z,2.70
2019-05-23T16:51:40.085Z,2.30
2019-05-23T16:54:08.824Z,2.73
2019-05-23T16:56:41.572Z,2.67
2019-05-23T16:59:11.845Z,2.90
2019-05-23T17:01:56.052Z,2.43
2019-05-23T17:04:20.811Z,3.00
2019-05-23T17:07:07.526Z,2.97
2019-05-23T17:10:05.714Z,2.73
2019-05-23T17:12:34.847Z,2.70
2019-05-23T17:15:17.021Z,2.50
2019-05-23T17:18:02.958Z,3.40
2019-05-23T17:20:33.323Z,2.63
2019-05-23T17:23:09.022Z,2.53
2019-05-23T17:25:39.252Z,2.60
2019-05-23T17:28:09.876Z,2.60
2019-05-23T17:30:42.818Z,2.70
2019-05-23T17:33:11.725Z,2.97
2019-05-23T17:35:40.522Z,3.20
2019-05-23T17:38:11.051Z,2.77
2019-05-23T17:40:40.433Z,3.47
2019-05-23T17:43:09.223Z,2.90
2019-05-23T17:45:38.095Z,3.13
2019-05-23T17:48:14.152Z,3.27
2019-05-23T17:50:45.464Z,3.13
2019-05-23T17:53:15.863Z,3.60
2019-05-23T17:55:44.629Z,3.47
2019-05-23T17:58:13.430Z,2.90
2019-05-23T18:00:43.646Z,3.20
2019-05-23T18:03:12.350Z,3.00
2019-05-23T18:05:40.962Z,3.00
2019-05-23T18:08:10.422Z,3.33
2019-05-23T18:10:45.040Z,2.80
2019-05-23T18:13:09.617Z,2.90
2019-05-23T18:15:38.306Z,3.33
2019-05-23T18:18:07.597Z,3.83
2019-05-23T18:20:37.818Z,3.60
2019-05-23T18:23:06.764Z,4.27
2019-05-23T18:25:35.557Z,3.77
2019-05-23T18:28:04.594Z,3.00
2019-05-23T18:30:50.186Z,4.00
2019-05-23T18:33:19.000Z,3.37
2019-05-23T18:35:49.137Z,3.23
2019-05-23T18:38:18.367Z,3.50
2019-05-23T18:41:01.628Z,3.20
2019-05-23T18:43:17.866Z,3.33
2019-05-23T18:45:47.810Z,3.10
2019-05-23T18:48:16.481Z,3.40
2019-05-23T18:50:45.428Z,3.20
2019-05-23T18:53:13.946Z,3.50
2019-05-23T18:55:42.534Z,3.50
2019-05-23T18:58:11.054Z,3.53
2019-05-23T19:00:55.721Z,3.80
2019-05-23T19:03:24.521Z,3.47
2019-05-23T19:05:53.375Z,3.77
2019-05-23T19:08:22.754Z,2.97
2019-05-23T19:10:51.405Z,3.50
2019-05-23T19:13:19.938Z,3.30
2019-05-23T19:15:48.588Z,2.87
2019-05-23T19:18:17.242Z,3.07
2019-05-23T19:20:45.954Z,3.10
2019-05-23T19:23:14.692Z,3.37
2019-05-23T19:25:45.745Z,3.67
2019-05-23T19:28:14.711Z,3.40
2019-05-23T19:30:44.309Z,3.37
2019-05-23T19:33:13.088Z,3.70
2019-05-23T19:35:41.821Z,3.60
2019-05-23T19:38:10.598Z,3.93
2019-05-23T19:40:39.489Z,3.23
2019-05-23T19:43:08.495Z,3.10
2019-05-23T19:45:37.298Z,3.40
2019-05-23T19:48:05.996Z,3.50
2019-05-23T19:50:35.719Z,3.50
2019-05-23T19:53:04.564Z,3.43
2019-05-23T19:55:33.521Z,2.80
2019-05-23T19:58:02.345Z,3.70
2019-05-23T20:00:31.946Z,3.70
2019-05-23T20:03:03.916Z,3.63
2019-05-23T20:05:35.870Z,3.50
2019-05-23T20:08:05.030Z,3.50
2019-05-23T20:10:34.470Z,3.57
2019-05-23T20:13:03.052Z,3.70
2019-05-23T20:15:32.158Z,3.20
2019-05-23T20:18:00.798Z,3.77
2019-05-23T20:20:29.881Z,3.90
2019-05-23T20:22:58.653Z,3.27
2019-05-23T20:25:27.991Z,3.20
2019-05-23T20:27:56.583Z,3.70
2019-05-23T20:30:46.216Z,3.50
2019-05-23T20:33:15.254Z,3.77
2019-05-23T20:35:43.980Z,3.10
2019-05-23T20:38:12.457Z,3.47
2019-05-23T20:40:41.126Z,3.13
2019-05-23T20:43:09.685Z,3.47
2019-05-23T20:45:38.513Z,3.70
2019-05-23T20:48:08.815Z,3.43
2019-05-23T20:50:37.589Z,3.30
2019-05-23T20:53:06.345Z,3.23
2019-05-23T20:55:35.232Z,3.03
2019-05-23T20:58:04.576Z,3.30
2019-05-23T21:00:34.881Z,3.67
2019-05-23T21:03:04.114Z,3.20
2019-05-23T21:05:32.861Z,3.30
2019-05-23T21:08:01.363Z,3.40
2019-05-23T21:10:45.170Z,3.37
2019-05-23T21:13:13.886Z,3.67
2019-05-23T21:15:42.509Z,3.40
2019-05-23T21:18:11.381Z,3.40
2019-05-23T21:20:40.027Z,3.63
2019-05-23T21:23:08.714Z,3.23
2019-05-23T21:25:39.046Z,3.87
2019-05-23T21:28:07.739Z,3.23
2019-05-23T21:30:36.331Z,3.50
2019-05-23T21:33:05.511Z,3.43
2019-05-23T21:35:34.183Z,3.57
2019-05-23T21:38:02.903Z,3.67
2019-05-23T21:40:36.913Z,3.60
2019-05-23T21:43:05.675Z,3.40
2019-05-23T21:45:34.634Z,3.70
2019-05-23T21:48:03.350Z,3.87
2019-05-23T21:50:32.151Z,3.33
2019-05-23T21:53:00.663Z,3.80
2019-05-23T21:55:39.954Z,3.27
2019-05-23T21:58:10.433Z,3.60
2019-05-23T22:01:07.012Z,3.30
2019-05-23T22:03:53.155Z,3.70
2019-05-23T22:06:31.225Z,3.70
2019-05-23T22:09:00.498Z,3.30
2019-05-23T22:11:29.363Z,3.60
2019-05-23T22:13:58.088Z,3.57
2019-05-23T22:16:27.019Z,3.20
2019-05-23T22:18:55.652Z,3.17
2019-05-23T22:21:24.406Z,3.47
2019-05-23T22:23:53.068Z,3.47
2019-05-23T22:26:21.728Z,3.37
2019-05-23T22:28:50.209Z,3.50
2019-05-23T22:31:19.059Z,3.47
2019-05-23T22:34:05.029Z,3.53
2019-05-23T22:36:33.645Z,3.33
2019-05-23T22:39:02.486Z,3.30
2019-05-23T22:41:31.065Z,3.10
2019-05-23T22:43:59.587Z,3.10
2019-05-23T22:46:29.055Z,3.47
2019-05-23T22:48:57.618Z,3.20
2019-05-23T22:51:26.179Z,3.40
2019-05-23T22:53:54.775Z,3.13
2019-05-23T22:56:23.309Z,3.53
2019-05-23T22:58:51.909Z,3.30
2019-05-23T23:01:22.053Z,3.10
2019-05-23T23:03:50.560Z,3.10
2019-05-23T23:06:19.698Z,3.13
2019-05-23T23:08:48.476Z,3.27
2019-05-23T23:11:17.053Z,3.77
2019-05-23T23:13:45.665Z,3.47
2019-05-23T23:16:14.345Z,3.20
2019-05-23T23:18:42.939Z,3.27
2019-05-23T23:21:11.610Z,3.30
2019-05-23T23:23:40.094Z,3.00
2019-05-23T23:26:08.761Z,2.90
2019-05-23T23:28:37.623Z,3.20
2019-05-23T23:31:06.211Z,3.00
2019-05-23T23:33:34.720Z,3.63
2019-05-23T23:36:03.262Z,3.10
2019-05-23T23:38:31.817Z,2.90
2019-05-23T23:41:00.388Z,3.00
2019-05-23T23:43:28.965Z,3.30
2019-05-23T23:46:15.594Z,3.10
2019-05-23T23:49:02.009Z,3.43
2019-05-23T23:51:48.112Z,2.97
2019-05-23T23:54:34.366Z,2.83
2019-05-23T23:57:20.417Z,3.17
2019-05-23T23:59:48.187Z,3.27
